createdAt,value
2022-09-23T00:01:11.155Z,97191.22
2022-09-23T00:03:41.453Z,97183.75
2022-09-23T00:06:13.293Z,97190.19
2022-09-23T00:08:40.913Z,97185.38
2022-09-23T00:11:19.607Z,97194.41
2022-09-23T00:13:48.891Z,97192.19
2022-09-23T00:16:35.766Z,97200.13
2022-09-23T00:19:03.694Z,97190.34
2022-09-23T00:21:30.558Z,97192.72
2022-09-23T00:23:57.102Z,97193.31
2022-09-23T00:26:25.243Z,97197.34
2022-09-23T00:28:52.603Z,97191.91
2022-09-23T00:31:24.866Z,97193.09
2022-09-23T00:33:56.660Z,97189.84
2022-09-23T00:36:24.481Z,97194.88
2022-09-23T00:38:51.096Z,97179.44
2022-09-23T00:41:17.911Z,97174.66
2022-09-23T00:43:47.393Z,97177.78
2022-09-23T00:46:38.882Z,97179.03
2022-09-23T00:49:15.369Z,97176.19
2022-09-23T00:51:48.769Z,97172.59
2022-09-23T00:54:15.398Z,97168.94
2022-09-23T00:56:41.887Z,97149.22
2022-09-23T00:59:09.663Z,97161.16
2022-09-23T01:01:37.497Z,97159.72
2022-09-23T01:04:05.955Z,97152.06
2022-09-23T01:06:32.902Z,97156.66
2022-09-23T01:08:59.497Z,97162.28
2022-09-23T01:11:38.111Z,97152.88
2022-09-23T01:14:16.989Z,97148.13
2022-09-23T01:17:06.758Z,97149.41
2022-09-23T01:20:04.218Z,97147.69
2022-09-23T01:22:49.547Z,97145.59
2022-09-23T01:25:27.138Z,97139.78
2022-09-23T01:28:22.218Z,97143.22
2022-09-23T01:31:21.150Z,97149.22
2022-09-23T01:33:56.882Z,97145.75
2022-09-23T01:36:27.368Z,97149.78
2022-09-23T01:39:42.134Z,97143.38
2022-09-23T01:42:22.601Z,97143.16
2022-09-23T01:45:08.878Z,97142.38
2022-09-23T01:47:44.930Z,97133.13
2022-09-23T01:50:39.915Z,97133.41
2022-09-23T01:53:27.534Z,97133.19
2022-09-23T01:55:58.931Z,97131.84
2022-09-23T01:58:32.089Z,97125.59
2022-09-23T02:01:06.249Z,97131.22
2022-09-23T02:04:18.494Z,97132.84
2022-09-23T02:06:52.451Z,97130.44
2022-09-23T02:09:24.855Z,97124.13
2022-09-23T02:12:00.274Z,97123.06
2022-09-23T02:14:39.187Z,97128.22
2022-09-23T02:17:13.053Z,97126.41
2022-09-23T02:19:46.164Z,97129.59
2022-09-23T02:22:18.597Z,97124.94
2022-09-23T02:24:45.588Z,97122.47
2022-09-23T02:27:35.075Z,97124.63
2022-09-23T02:30:21.994Z,97116.53
2022-09-23T02:33:01.062Z,97111.38
2022-09-23T02:35:37.304Z,97126.31
2022-09-23T02:38:12.504Z,97129.03
2022-09-23T02:40:58.734Z,97118.81
2022-09-23T02:43:36.176Z,97120.88
2022-09-23T02:46:04.538Z,97117.84
2022-09-23T02:48:40.648Z,97121.59
2022-09-23T02:51:08.451Z,97118.94
2022-09-23T02:53:35.139Z,97121.28
2022-09-23T02:56:02.628Z,97119.50
2022-09-23T02:58:29.935Z,97113.50
2022-09-23T03:01:07.755Z,97116.53
2022-09-23T03:03:49.568Z,97107.00
2022-09-23T03:06:49.943Z,97104.94
2022-09-23T03:09:32.265Z,97106.63
2022-09-23T03:12:13.096Z,97096.06
2022-09-23T03:14:44.589Z,97093.00
2022-09-23T03:17:20.969Z,97106.19
2022-09-23T03:20:24.769Z,97090.19
2022-09-23T03:23:00.895Z,97092.53
2022-09-23T03:25:31.624Z,97091.09
2022-09-23T03:28:00.917Z,97097.28
2022-09-23T03:30:29.284Z,97091.09
2022-09-23T03:33:00.176Z,97088.06
2022-09-23T03:35:31.128Z,97089.47
2022-09-23T03:38:10.190Z,97090.91
2022-09-23T03:40:43.564Z,97096.56
2022-09-23T03:43:13.873Z,97091.94
2022-09-23T03:45:42.613Z,97090.69
2022-09-23T03:48:09.472Z,97085.88
2022-09-23T03:50:36.194Z,97088.91
2022-09-23T03:53:02.687Z,97091.00
2022-09-23T03:55:29.097Z,97084.19
2022-09-23T03:57:55.717Z,97092.16
2022-09-23T04:00:22.304Z,97077.78
2022-09-23T04:02:49.856Z,97086.97
2022-09-23T04:05:16.573Z,97089.22
2022-09-23T04:07:43.201Z,97079.97
2022-09-23T04:10:10.956Z,97086.16
2022-09-23T04:12:38.155Z,97085.34
2022-09-23T04:15:05.204Z,97072.88
2022-09-23T04:17:31.658Z,97084.53
2022-09-23T04:19:58.150Z,97077.00
2022-09-23T04:22:24.671Z,97086.78
2022-09-23T04:24:51.291Z,97087.50
2022-09-23T04:27:17.758Z,97083.31
2022-09-23T04:29:44.210Z,97091.63
2022-09-23T04:32:10.779Z,97088.75
2022-09-23T04:34:37.305Z,97082.22
2022-09-23T04:37:03.686Z,97084.78
2022-09-23T04:39:30.154Z,97078.97
2022-09-23T04:41:56.563Z,97085.38
2022-09-23T04:44:23.043Z,97069.50
2022-09-23T04:46:49.621Z,97084.78
2022-09-23T04:49:16.532Z,97072.41
2022-09-23T04:51:43.558Z,97069.88
2022-09-23T04:54:11.815Z,97079.91
2022-09-23T04:56:39.664Z,97079.50
2022-09-23T04:59:06.992Z,97071.47
2022-09-23T05:01:35.082Z,97076.00
2022-09-23T05:04:05.208Z,97087.03
2022-09-23T05:06:35.790Z,97084.28
2022-09-23T05:09:04.874Z,97081.63
2022-09-23T05:11:32.019Z,97082.88
2022-09-23T05:13:58.814Z,97073.91
2022-09-23T05:16:26.713Z,97076.59
2022-09-23T05:18:53.915Z,97072.56
2022-09-23T05:21:23.382Z,97081.81
2022-09-23T05:23:55.209Z,97081.66
2022-09-23T05:26:27.573Z,97085.47
2022-09-23T05:28:54.577Z,97079.63
2022-09-23T05:31:23.987Z,97082.06
2022-09-23T05:33:57.289Z,97076.88
2022-09-23T05:36:24.777Z,97083.38
2022-09-23T05:38:51.909Z,97077.50
2022-09-23T05:41:21.363Z,97072.94
2022-09-23T05:43:47.806Z,97075.84
2022-09-23T05:46:26.242Z,97074.59
2022-09-23T05:48:52.697Z,97066.75
2022-09-23T05:51:20.740Z,97075.78
2022-09-23T05:53:48.454Z,97063.91
2022-09-23T05:56:17.654Z,97064.13
2022-09-23T05:58:44.708Z,97073.56
2022-09-23T06:01:12.829Z,97075.41
2022-09-23T06:03:39.699Z,97070.50
2022-09-23T06:06:07.299Z,97071.38
2022-09-23T06:08:34.527Z,97085.16
2022-09-23T06:11:08.150Z,97080.63
2022-09-23T06:13:38.071Z,97081.31
2022-09-23T06:16:08.001Z,97076.75
2022-09-23T06:18:35.715Z,97080.56
2022-09-23T06:21:03.012Z,97083.00
2022-09-23T06:23:30.158Z,97084.72
2022-09-23T06:26:05.399Z,97091.78
2022-09-23T06:28:33.782Z,97094.28
2022-09-23T06:31:03.234Z,97089.09
2022-09-23T06:33:36.778Z,97091.88
2022-09-23T06:36:06.259Z,97087.94
2022-09-23T06:38:36.556Z,97070.88
2022-09-23T06:41:03.382Z,97073.88
2022-09-23T06:43:30.505Z,97071.44
2022-09-23T06:45:59.124Z,97073.06
2022-09-23T06:48:27.003Z,97075.75
2022-09-23T06:50:54.376Z,97075.47
2022-09-23T06:53:24.683Z,97075.34
2022-09-23T06:56:19.796Z,97060.31
2022-09-23T06:58:46.831Z,97070.28
2022-09-23T07:01:17.459Z,97065.47
2022-09-23T07:03:45.672Z,97069.44
2022-09-23T07:06:12.330Z,97072.19
2022-09-23T07:08:41.801Z,97061.16
2022-09-23T07:11:13.404Z,97077.81
2022-09-23T07:13:41.282Z,97075.63
2022-09-23T07:16:09.039Z,97076.59
2022-09-23T07:18:37.321Z,97072.19
2022-09-23T07:21:10.354Z,97078.47
2022-09-23T07:23:37.760Z,97070.09
2022-09-23T07:26:05.643Z,97082.34
2022-09-23T07:28:32.214Z,97088.38
2022-09-23T07:31:02.199Z,97077.22
2022-09-23T07:33:33.288Z,97079.25
2022-09-23T07:36:05.350Z,97079.22
2022-09-23T07:38:31.947Z,97080.97
2022-09-23T07:41:05.163Z,97080.72
2022-09-23T07:43:32.474Z,97081.91
2022-09-23T07:46:04.494Z,97068.88
2022-09-23T07:48:34.267Z,97081.69
2022-09-23T07:51:07.570Z,97083.31
2022-09-23T07:53:34.026Z,97081.88
2022-09-23T07:56:00.644Z,97081.56
2022-09-23T07:58:27.032Z,97080.38
2022-09-23T08:00:54.028Z,97077.59
2022-09-23T08:03:21.156Z,97079.63
2022-09-23T08:05:47.636Z,97069.59
2022-09-23T08:08:14.107Z,97074.25
2022-09-23T08:10:40.619Z,97080.66
2022-09-23T08:13:07.202Z,97066.16
2022-09-23T08:15:33.621Z,97077.94
2022-09-23T08:18:00.442Z,97066.66
2022-09-23T08:20:47.683Z,97079.25
2022-09-23T08:23:15.430Z,97069.63
2022-09-23T08:25:45.216Z,97070.81
2022-09-23T08:28:18.540Z,97066.19
2022-09-23T08:30:48.710Z,97067.72
2022-09-23T08:33:19.643Z,97070.97
2022-09-23T08:35:49.396Z,97055.78
2022-09-23T08:38:16.074Z,97059.88
2022-09-23T08:40:47.303Z,97054.47
2022-09-23T08:43:32.606Z,97060.34
2022-09-23T08:46:06.333Z,97052.28
2022-09-23T08:48:42.251Z,97050.34
2022-09-23T08:51:14.654Z,97054.28
2022-09-23T08:53:42.225Z,97046.63
2022-09-23T08:56:15.985Z,97047.13
2022-09-23T08:59:11.822Z,97050.22
2022-09-23T09:01:49.745Z,97060.34
2022-09-23T09:04:28.456Z,97054.78
2022-09-23T09:10:18.573Z,97039.91
2022-09-23T09:13:03.112Z,97036.34
2022-09-23T09:15:29.685Z,97045.31
2022-09-23T09:18:25.345Z,97040.38
2022-09-23T09:21:05.252Z,97037.50
2022-09-23T09:23:45.283Z,97026.97
2022-09-23T09:26:22.298Z,97031.53
2022-09-23T09:29:17.258Z,97024.94
2022-09-23T09:31:50.680Z,97016.59
2022-09-23T09:34:34.534Z,97017.72
2022-09-23T09:37:13.701Z,97016.69
2022-09-23T09:39:40.765Z,97011.09
2022-09-23T09:42:07.509Z,97005.00
2022-09-23T09:44:40.496Z,96994.03
2022-09-23T09:47:46.653Z,96995.47
2022-09-23T09:50:21.634Z,97001.63
2022-09-23T09:52:48.684Z,96991.25
2022-09-23T09:55:17.630Z,97000.81
2022-09-23T09:57:49.217Z,97004.88
2022-09-23T10:00:21.502Z,96998.56
2022-09-23T10:02:59.005Z,96992.97
2022-09-23T10:05:30.127Z,96987.28
2022-09-23T10:07:56.709Z,96986.34
2022-09-23T10:10:32.764Z,96988.50
2022-09-23T10:13:15.037Z,96987.28
2022-09-23T10:32:33.651Z,96970.75
2022-09-23T10:35:03.346Z,96972.13
2022-09-23T10:37:43.755Z,96958.63
2022-09-23T10:40:35.895Z,96970.53
2022-09-23T10:43:46.096Z,96964.94
2022-09-23T10:46:41.666Z,96960.19
2022-09-23T10:49:20.820Z,96953.56
2022-09-23T10:52:06.949Z,96954.09
2022-09-23T10:54:49.450Z,96944.53
2022-09-23T10:57:34.690Z,96941.38
2022-09-23T11:00:10.432Z,96947.16
2022-09-23T11:02:49.123Z,96938.94
2022-09-23T11:05:15.669Z,96937.50
2022-09-23T11:07:57.151Z,96932.78
2022-09-23T11:10:49.740Z,96935.28
2022-09-23T11:13:32.587Z,96927.50
2022-09-23T11:16:17.395Z,96935.91
2022-09-23T11:19:32.290Z,96932.88
2022-09-23T11:22:28.107Z,96928.00
2022-09-23T11:25:17.167Z,96925.75
2022-09-23T11:28:17.998Z,96919.22
2022-09-23T11:31:00.194Z,96914.38
2022-09-23T11:33:45.428Z,96917.78
2022-09-23T11:36:40.143Z,96911.34
2022-09-23T11:39:33.217Z,96905.34
2022-09-23T11:42:02.858Z,96901.16
2022-09-23T11:44:35.581Z,96900.28
2022-09-23T11:47:08.649Z,96895.00
2022-09-23T11:49:53.563Z,96891.44
2022-09-23T11:52:43.844Z,96892.19
2022-09-23T11:55:35.934Z,96888.94
2022-09-23T11:58:21.961Z,96893.56
2022-09-23T12:01:01.549Z,96881.22
2022-09-23T12:03:49.583Z,96878.78
2022-09-23T12:06:22.910Z,96878.03
2022-09-23T12:08:57.523Z,96868.50
2022-09-23T12:11:42.079Z,96863.72
2022-09-23T12:14:14.500Z,96864.53
2022-09-23T12:17:02.760Z,96866.09
2022-09-23T12:19:38.581Z,96864.25
2022-09-23T12:22:08.147Z,96857.59
2022-09-23T12:24:54.250Z,96859.81
2022-09-23T12:27:32.304Z,96866.44
2022-09-23T12:30:05.420Z,96865.50
2022-09-23T12:32:32.619Z,96858.88
2022-09-23T12:35:00.542Z,96854.47
2022-09-23T12:37:36.129Z,96852.06
2022-09-23T12:40:16.477Z,96856.28
2022-09-23T12:42:46.355Z,96854.44
2022-09-23T12:45:32.004Z,96852.88
2022-09-23T12:48:03.184Z,96845.84
2022-09-23T12:50:56.979Z,96834.41
2022-09-23T12:53:35.502Z,96835.25
2022-09-23T12:56:20.720Z,96833.75
2022-09-23T12:58:47.195Z,96823.00
2022-09-23T13:01:23.066Z,96823.84
2022-09-23T13:04:10.744Z,96818.91
2022-09-23T13:06:40.129Z,96818.47
2022-09-23T13:09:17.868Z,96802.66
2022-09-23T13:11:47.930Z,96812.13
2022-09-23T13:14:27.265Z,96808.78
2022-09-23T13:16:56.083Z,96807.91
2022-09-23T13:19:25.701Z,96808.44
2022-09-23T13:21:59.619Z,96804.72
2022-09-23T13:24:28.880Z,96799.81
2022-09-23T13:27:06.522Z,96807.66
2022-09-23T13:29:42.281Z,96800.91
2022-09-23T13:32:15.095Z,96798.78
2022-09-23T13:34:44.301Z,96787.09
2022-09-23T13:37:22.385Z,96781.38
2022-09-23T13:39:50.026Z,96780.69
2022-09-23T13:42:29.036Z,96780.00
2022-09-23T13:44:58.979Z,96774.47
2022-09-23T13:47:29.530Z,96778.03
2022-09-23T13:49:56.887Z,96776.84
2022-09-23T13:52:29.933Z,96775.31
2022-09-23T13:54:57.054Z,96776.81
2022-09-23T13:57:27.887Z,96777.19
2022-09-23T13:59:54.650Z,96770.13
2022-09-23T14:02:25.599Z,96777.84
2022-09-23T14:04:52.774Z,96773.59
2022-09-23T14:07:19.832Z,96773.31
2022-09-23T14:09:49.663Z,96774.97
2022-09-23T14:12:22.048Z,96771.28
2022-09-23T14:14:50.983Z,96758.50
2022-09-23T14:17:21.493Z,96774.00
2022-09-23T14:19:48.517Z,96770.09
2022-09-23T14:22:29.114Z,96767.25
2022-09-23T14:24:57.266Z,96769.47
2022-09-23T14:27:31.214Z,96763.41
2022-09-23T14:29:58.876Z,96755.75
2022-09-23T14:32:28.505Z,96756.66
2022-09-23T14:35:04.412Z,96755.59
2022-09-23T14:37:55.513Z,96754.38
2022-09-23T14:40:27.892Z,96751.03
2022-09-23T14:43:16.280Z,96747.00
2022-09-23T14:45:50.559Z,96757.63
2022-09-23T14:48:22.549Z,96738.38
2022-09-23T14:50:52.690Z,96742.81
2022-09-23T14:53:22.516Z,96735.47
2022-09-23T14:55:52.859Z,96732.31
2022-09-23T14:58:23.022Z,96728.34
2022-09-23T15:01:00.615Z,96731.25
2022-09-23T15:03:28.746Z,96722.00
2022-09-23T15:06:00.182Z,96729.69
2022-09-23T15:08:28.863Z,96719.53
2022-09-23T15:10:55.914Z,96726.69
2022-09-23T15:13:28.791Z,96707.16
2022-09-23T15:15:56.822Z,96715.94
2022-09-23T15:18:29.954Z,96715.94
2022-09-23T15:21:18.999Z,96720.69
2022-09-23T15:23:45.445Z,96719.94
2022-09-23T15:26:23.736Z,96716.50
2022-09-23T15:28:53.602Z,96712.53
2022-09-23T15:31:25.559Z,96721.53
2022-09-23T15:33:52.477Z,96710.66
2022-09-23T15:36:25.860Z,96717.81
2022-09-23T15:38:53.187Z,96717.78
2022-09-23T15:41:19.710Z,96715.16
2022-09-23T15:43:47.037Z,96718.78
2022-09-23T15:46:25.850Z,96716.44
2022-09-23T15:49:22.255Z,96716.19
2022-09-23T15:51:51.950Z,96707.19
2022-09-23T15:54:19.443Z,96712.63
2022-09-23T15:56:45.950Z,96717.16
2022-09-23T15:59:12.781Z,96710.75
2022-09-23T16:01:39.463Z,96708.06
2022-09-23T16:04:06.165Z,96692.13
2022-09-23T16:06:35.983Z,96699.06
2022-09-23T16:09:02.625Z,96707.97
2022-09-23T16:11:31.756Z,96700.81
2022-09-23T16:14:01.282Z,96707.38
2022-09-23T16:16:28.177Z,96697.50
2022-09-23T16:18:55.197Z,96694.31
2022-09-23T16:21:24.906Z,96692.69
2022-09-23T16:23:53.309Z,96705.25
2022-09-23T16:26:34.854Z,96695.25
2022-09-23T16:29:02.267Z,96695.16
2022-09-23T16:31:32.272Z,96701.63
2022-09-23T16:34:02.331Z,96698.38
2022-09-23T16:36:40.527Z,96704.91
2022-09-23T16:39:09.852Z,96690.88
2022-09-23T16:41:36.442Z,96688.84
2022-09-23T16:44:04.644Z,96697.16
2022-09-23T16:46:31.463Z,96697.97
2022-09-23T16:48:58.640Z,96694.88
2022-09-23T16:51:38.156Z,96713.03
2022-09-23T16:54:10.177Z,96696.84
2022-09-23T16:56:40.337Z,96694.09
2022-09-23T16:59:06.855Z,96695.56
2022-09-23T17:01:52.109Z,96698.22
2022-09-23T17:04:19.536Z,96692.47
2022-09-23T17:06:50.085Z,96698.44
2022-09-23T17:09:18.784Z,96692.41
2022-09-23T17:11:47.763Z,96694.03
2022-09-23T17:14:15.590Z,96698.97
2022-09-23T17:16:42.496Z,96698.34
2022-09-23T17:19:11.488Z,96704.72
2022-09-23T17:21:38.172Z,96712.06
2022-09-23T17:24:05.211Z,96703.25
2022-09-23T17:26:31.698Z,96711.06
2022-09-23T17:28:59.570Z,96703.66
2022-09-23T17:31:26.201Z,96707.94
2022-09-23T17:33:53.120Z,96701.81
2022-09-23T17:36:20.685Z,96717.34
2022-09-23T17:38:48.333Z,96706.75
2022-09-23T17:41:15.970Z,96717.25
2022-09-23T17:43:42.399Z,96716.09
2022-09-23T17:46:12.753Z,96715.16
2022-09-23T17:48:41.293Z,96715.88
2022-09-23T17:51:12.266Z,96715.63
2022-09-23T17:53:40.089Z,96714.28
2022-09-23T17:56:18.163Z,96708.34
2022-09-23T17:58:46.030Z,96695.53
2022-09-23T18:01:35.480Z,96702.94
2022-09-23T18:04:05.464Z,96701.34
2022-09-23T18:06:35.586Z,96701.91
2022-09-23T18:09:05.059Z,96705.00
2022-09-23T18:11:34.691Z,96706.28
2022-09-23T18:14:04.331Z,96711.66
2022-09-23T18:16:35.114Z,96712.59
2022-09-23T18:19:03.730Z,96711.13
2022-09-23T18:21:35.852Z,96712.47
2022-09-23T18:26:50.232Z,96709.91
2022-09-23T18:29:17.252Z,96709.25
2022-09-23T18:31:45.015Z,96699.22
2022-09-23T18:34:14.148Z,96693.50
2022-09-23T18:36:40.684Z,96687.38
2022-09-23T18:39:07.182Z,96699.53
2022-09-23T18:41:35.029Z,96691.56
2022-09-23T18:44:01.791Z,96695.13
2022-09-23T18:46:29.727Z,96693.78
2022-09-23T18:49:15.899Z,96712.38
2022-09-23T18:51:51.764Z,96711.91
2022-09-23T18:54:19.367Z,96701.63
2022-09-23T18:56:46.450Z,96712.00
2022-09-23T18:59:16.549Z,96705.41
2022-09-23T19:01:45.736Z,96713.81
2022-09-23T19:04:14.103Z,96709.03
2022-09-23T19:06:40.631Z,96701.63
2022-09-23T19:09:07.663Z,96695.41
2022-09-23T19:11:36.262Z,96713.88
2022-09-23T19:14:05.793Z,96713.41
2022-09-23T19:16:33.312Z,96718.09
2022-09-23T19:18:59.937Z,96707.59
2022-09-23T19:21:28.748Z,96714.66
2022-09-23T19:24:03.377Z,96707.16
2022-09-23T19:26:39.456Z,96711.41
2022-09-23T19:29:08.329Z,96715.41
2022-09-23T19:31:39.919Z,96716.88
2022-09-23T19:34:11.460Z,96713.34
2022-09-23T19:36:40.442Z,96714.50
2022-09-23T19:39:11.993Z,96712.34
2022-09-23T19:41:38.566Z,96704.84
2022-09-23T19:44:07.340Z,96725.38
2022-09-23T19:46:39.556Z,96723.44
2022-09-23T19:49:07.696Z,96720.69
2022-09-23T19:51:34.943Z,96709.00
2022-09-23T19:54:03.412Z,96710.09
2022-09-23T19:56:31.847Z,96709.91
2022-09-23T19:58:58.724Z,96711.25
2022-09-23T20:01:27.227Z,96701.13
2022-09-23T20:03:53.872Z,96698.28
2022-09-23T20:06:20.599Z,96700.44
2022-09-23T20:08:47.904Z,96698.28
2022-09-23T20:11:17.287Z,96695.91
2022-09-23T20:13:48.547Z,96699.06
2022-09-23T20:16:17.978Z,96700.22
2022-09-23T20:18:46.124Z,96697.81
2022-09-23T20:21:15.290Z,96693.38
2022-09-23T20:23:42.244Z,96688.50
2022-09-23T20:26:28.080Z,96691.13
2022-09-23T20:28:55.000Z,96688.72
2022-09-23T20:31:22.890Z,96683.50
2022-09-23T20:33:58.264Z,96677.56
2022-09-23T20:36:26.332Z,96680.28
2022-09-23T20:38:56.907Z,96678.38
2022-09-23T20:41:23.651Z,96678.00
2022-09-23T20:43:54.226Z,96674.94
2022-09-23T20:46:24.212Z,96672.78
2022-09-23T20:48:50.771Z,96675.97
2022-09-23T20:51:17.792Z,96662.75
2022-09-23T20:53:44.435Z,96678.38
2022-09-23T20:56:10.791Z,96673.94
2022-09-23T20:58:37.293Z,96673.94
2022-09-23T21:01:14.465Z,96666.19
2022-09-23T21:03:43.694Z,96668.22
2022-09-23T21:06:11.465Z,96666.88
2022-09-23T21:08:37.974Z,96660.59
2022-09-23T21:11:08.131Z,96672.44
2022-09-23T21:13:34.706Z,96642.38
2022-09-23T21:16:05.323Z,96662.53
2022-09-23T21:18:32.079Z,96663.63
2022-09-23T21:20:59.882Z,96667.19
2022-09-23T21:23:28.523Z,96677.66
2022-09-23T21:26:12.025Z,96676.50
2022-09-23T21:28:40.433Z,96672.97
2022-09-23T21:31:09.368Z,96672.41
2022-09-23T21:33:37.392Z,96670.81
2022-09-23T21:36:06.246Z,96665.09
2022-09-23T21:38:37.055Z,96675.13
2022-09-23T21:41:06.502Z,96671.81
2022-09-23T21:43:35.007Z,96669.44
2022-09-23T21:46:03.731Z,96663.19
2022-09-23T21:48:32.046Z,96661.13
2022-09-23T21:51:01.062Z,96645.31
2022-09-23T21:53:29.660Z,96653.28
2022-09-23T21:56:11.518Z,96651.00
2022-09-23T21:58:39.351Z,96646.78
2022-09-23T22:17:23.695Z,96651.41
2022-09-23T22:19:50.878Z,96654.72
2022-09-23T22:22:18.649Z,96653.81
2022-09-23T22:24:47.038Z,96644.25
2022-09-23T22:27:15.644Z,96644.75
2022-09-23T22:30:00.946Z,96636.97
2022-09-23T22:32:43.301Z,96638.09
2022-09-23T22:35:17.915Z,96642.78
2022-09-23T22:37:45.288Z,96646.44
2022-09-23T22:40:14.479Z,96649.03
2022-09-23T22:42:42.253Z,96648.47
2022-09-23T22:45:10.312Z,96643.59
2022-09-23T22:47:38.605Z,96653.72
2022-09-23T22:50:06.957Z,96653.50
2022-09-23T22:52:34.795Z,96651.09
2022-09-23T22:55:02.284Z,96638.69
2022-09-23T22:57:28.810Z,96639.25
2022-09-23T22:59:55.244Z,96642.44
2022-09-23T23:02:23.619Z,96636.66
2022-09-23T23:04:50.390Z,96640.50
2022-09-23T23:07:23.018Z,96647.34
2022-09-23T23:09:50.538Z,96633.13
2022-09-23T23:12:20.044Z,96638.59
2022-09-23T23:14:47.517Z,96629.69
2022-09-23T23:17:14.148Z,96621.84
2022-09-23T23:19:40.540Z,96632.88
2022-09-23T23:22:07.016Z,96627.31
2022-09-23T23:24:33.488Z,96631.88
2022-09-23T23:27:00.023Z,96633.91
2022-09-23T23:29:27.777Z,96634.84
2022-09-23T23:31:54.608Z,96632.88
2022-09-23T23:34:22.246Z,96636.97
2022-09-23T23:36:54.470Z,96637.06
2022-09-23T23:39:26.020Z,96637.66
2022-09-23T23:41:55.137Z,96634.94
2022-09-23T23:44:23.799Z,96636.75
2022-09-23T23:46:50.991Z,96626.50
2022-09-23T23:49:17.580Z,96631.75
2022-09-23T23:51:44.160Z,96624.22
2022-09-23T23:54:11.536Z,96622.75
2022-09-23T23:56:38.039Z,96616.03
2022-09-23T23:59:04.556Z,96621.16
